createdAt,value
2022-09-29T00:00:18.136Z,16.96
2022-09-29T00:02:44.735Z,16.96
2022-09-29T00:05:11.358Z,16.94
2022-09-29T00:07:37.907Z,16.94
2022-09-29T00:10:05.258Z,16.92
2022-09-29T00:12:31.811Z,16.91
2022-09-29T00:14:58.299Z,16.92
2022-09-29T00:17:25.101Z,16.89
2022-09-29T00:19:51.629Z,16.87
2022-09-29T00:22:18.146Z,16.87
2022-09-29T00:24:44.632Z,16.88
2022-09-29T00:27:11.140Z,16.87
2022-09-29T00:29:37.664Z,16.88
2022-09-29T00:32:04.272Z,16.90
2022-09-29T00:34:30.794Z,16.94
2022-09-29T00:36:57.372Z,16.95
2022-09-29T00:39:24.076Z,16.95
2022-09-29T00:41:50.680Z,16.94
2022-09-29T00:44:19.314Z,16.91
2022-09-29T00:46:59.364Z,16.84
2022-09-29T00:49:25.918Z,16.80
2022-09-29T00:51:59.911Z,16.76
2022-09-29T00:54:28.353Z,16.72
2022-09-29T00:56:56.423Z,16.68
2022-09-29T00:59:29.422Z,16.69
2022-09-29T01:01:56.002Z,16.68
2022-09-29T01:04:22.746Z,16.66
2022-09-29T01:06:53.767Z,16.65
2022-09-29T01:09:32.613Z,16.64
2022-09-29T01:11:59.399Z,16.62
2022-09-29T01:14:27.429Z,16.60
2022-09-29T01:16:53.996Z,16.56
2022-09-29T01:19:38.468Z,16.55
2022-09-29T01:22:43.015Z,16.52
2022-09-29T01:25:34.348Z,16.53
2022-09-29T01:28:36.260Z,16.52
2022-09-29T01:31:31.108Z,16.51
2022-09-29T01:34:13.675Z,16.49
2022-09-29T01:36:58.537Z,16.41
2022-09-29T01:39:31.147Z,16.36
2022-09-29T01:42:02.243Z,16.34
2022-09-29T01:44:31.384Z,16.34
2022-09-29T01:47:14.275Z,16.31
2022-09-29T01:49:44.617Z,16.29
2022-09-29T01:52:24.645Z,16.27
2022-09-29T01:54:55.575Z,16.25
2022-09-29T01:57:27.478Z,16.24
2022-09-29T02:00:02.086Z,16.26
2022-09-29T02:02:40.813Z,16.26
2022-09-29T02:05:16.131Z,16.29
2022-09-29T02:07:45.424Z,16.29
2022-09-29T02:10:20.136Z,16.30
2022-09-29T02:12:47.576Z,16.26
2022-09-29T02:15:19.352Z,16.22
2022-09-29T02:17:45.952Z,16.20
2022-09-29T02:20:13.361Z,16.23
2022-09-29T02:22:41.071Z,16.26
2022-09-29T02:25:09.509Z,16.26
2022-09-29T02:27:36.392Z,16.21
2022-09-29T02:30:04.130Z,16.18
2022-09-29T02:32:31.637Z,16.16
2022-09-29T02:34:58.169Z,16.13
2022-09-29T02:37:30.324Z,16.12
2022-09-29T02:40:12.396Z,16.08
2022-09-29T02:42:57.712Z,16.06
2022-09-29T02:45:59.220Z,16.05
2022-09-29T02:48:35.005Z,16.05
2022-09-29T02:51:20.639Z,16.05
2022-09-29T02:54:35.349Z,16.07
2022-09-29T02:57:06.075Z,16.06
2022-09-29T02:59:40.297Z,16.09
2022-09-29T03:02:06.803Z,16.13
2022-09-29T03:04:33.371Z,16.15
2022-09-29T03:06:59.912Z,16.18
2022-09-29T03:09:26.413Z,16.19
2022-09-29T03:11:52.920Z,16.19
2022-09-29T03:14:19.547Z,16.20
2022-09-29T03:16:46.119Z,16.19
2022-09-29T03:19:12.623Z,16.13
2022-09-29T03:21:39.142Z,16.08
2022-09-29T03:24:06.251Z,16.05
2022-09-29T03:26:33.189Z,16.03
2022-09-29T03:29:00.303Z,16.03
2022-09-29T03:31:26.854Z,16.03
2022-09-29T03:33:53.379Z,16.06
2022-09-29T03:36:19.945Z,16.07
2022-09-29T03:38:47.863Z,16.08
2022-09-29T03:41:14.559Z,16.10
2022-09-29T03:43:41.379Z,16.07
2022-09-29T03:46:08.031Z,16.05
2022-09-29T03:48:35.413Z,16.02
2022-09-29T03:51:02.237Z,16.02
2022-09-29T03:53:28.788Z,16.02
2022-09-29T03:55:55.370Z,15.99
2022-09-29T03:58:21.912Z,16.01
2022-09-29T04:00:49.939Z,16.04
2022-09-29T04:03:16.832Z,16.08
2022-09-29T04:05:46.371Z,16.12
2022-09-29T04:08:13.710Z,16.14
2022-09-29T04:10:40.669Z,16.18
2022-09-29T04:13:08.341Z,16.20
2022-09-29T04:15:35.173Z,16.23
2022-09-29T04:18:01.797Z,16.26
2022-09-29T04:20:28.763Z,16.26
2022-09-29T04:22:55.302Z,16.27
2022-09-29T04:25:21.875Z,16.26
2022-09-29T04:27:48.448Z,16.27
2022-09-29T04:30:15.340Z,16.27
2022-09-29T04:32:42.422Z,16.29
2022-09-29T04:35:09.235Z,16.29
2022-09-29T04:37:35.790Z,16.28
2022-09-29T04:40:03.647Z,16.27
2022-09-29T04:42:30.348Z,16.23
2022-09-29T04:44:56.919Z,16.21
2022-09-29T04:47:23.564Z,16.19
2022-09-29T04:49:50.106Z,16.18
2022-09-29T04:52:16.618Z,16.18
2022-09-29T04:54:43.143Z,16.16
2022-09-29T04:57:10.692Z,16.08
2022-09-29T04:59:37.249Z,16.05
2022-09-29T05:02:03.871Z,16.03
2022-09-29T05:04:30.512Z,15.99
2022-09-29T05:06:57.025Z,15.99
2022-09-29T05:09:24.953Z,15.95
2022-09-29T05:11:51.759Z,15.93
2022-09-29T05:14:18.318Z,15.93
2022-09-29T05:16:45.340Z,15.94
2022-09-29T05:19:12.112Z,15.96
2022-09-29T05:21:38.733Z,15.99
2022-09-29T05:24:05.562Z,16.00
2022-09-29T05:26:32.362Z,16.01
2022-09-29T05:28:58.927Z,16.05
2022-09-29T05:31:25.574Z,16.08
2022-09-29T05:33:52.159Z,16.13
2022-09-29T05:36:18.710Z,16.15
2022-09-29T05:38:45.295Z,16.15
2022-09-29T05:41:13.086Z,16.19
2022-09-29T05:43:40.387Z,16.22
2022-09-29T05:46:09.109Z,16.23
2022-09-29T05:48:36.475Z,16.22
2022-09-29T05:51:11.338Z,16.25
2022-09-29T05:53:37.923Z,16.27
2022-09-29T05:56:12.719Z,16.29
2022-09-29T05:58:39.704Z,16.32
2022-09-29T06:01:08.343Z,16.35
2022-09-29T06:03:35.937Z,16.39
2022-09-29T06:06:16.090Z,16.42
2022-09-29T06:08:43.715Z,16.43
2022-09-29T06:11:21.929Z,16.44
2022-09-29T06:13:50.503Z,16.46
2022-09-29T06:16:19.984Z,16.46
2022-09-29T06:18:47.349Z,16.46
2022-09-29T06:21:16.920Z,16.48
2022-09-29T06:23:43.472Z,16.50
2022-09-29T06:26:12.443Z,16.53
2022-09-29T06:28:39.263Z,16.59
2022-09-29T06:31:15.316Z,16.62
2022-09-29T06:33:42.778Z,16.67
2022-09-29T06:36:39.547Z,16.74
2022-09-29T06:39:07.876Z,16.79
2022-09-29T06:41:35.390Z,16.87
2022-09-29T06:44:02.848Z,16.93
2022-09-29T06:46:29.689Z,16.99
2022-09-29T06:48:56.557Z,17.02
2022-09-29T06:51:27.443Z,17.02
2022-09-29T06:54:09.543Z,17.04
2022-09-29T06:56:38.473Z,17.05
2022-09-29T06:59:05.086Z,17.06
2022-09-29T07:01:31.905Z,17.08
2022-09-29T07:04:00.790Z,17.09
2022-09-29T07:06:28.253Z,17.14
2022-09-29T07:08:59.125Z,17.21
2022-09-29T07:11:26.448Z,17.32
2022-09-29T07:13:54.845Z,17.40
2022-09-29T07:16:24.283Z,17.51
2022-09-29T07:18:51.479Z,17.61
2022-09-29T07:21:18.753Z,17.70
2022-09-29T07:23:47.000Z,17.79
2022-09-29T07:26:15.076Z,17.90
2022-09-29T07:28:41.625Z,17.98
2022-09-29T07:31:15.767Z,18.08
2022-09-29T07:33:45.100Z,18.18
2022-09-29T07:36:12.702Z,18.27
2022-09-29T07:38:39.252Z,18.28
2022-09-29T07:41:11.080Z,18.33
2022-09-29T07:43:38.029Z,18.41
2022-09-29T07:46:05.124Z,18.54
2022-09-29T07:48:32.854Z,18.66
2022-09-29T07:51:03.922Z,18.78
2022-09-29T07:53:30.931Z,18.90
2022-09-29T07:56:12.937Z,19.03
2022-09-29T07:58:39.932Z,19.16
2022-09-29T08:01:10.735Z,19.31
2022-09-29T08:03:41.126Z,19.40
2022-09-29T08:06:08.089Z,19.43
2022-09-29T08:08:38.643Z,19.44
2022-09-29T08:11:16.429Z,19.43
2022-09-29T08:13:53.587Z,19.43
2022-09-29T08:16:20.951Z,19.48
2022-09-29T08:18:47.611Z,19.62
2022-09-29T08:21:15.304Z,19.77
2022-09-29T08:23:42.888Z,19.91
2022-09-29T08:26:17.372Z,20.11
2022-09-29T08:28:45.189Z,20.25
2022-09-29T08:31:23.042Z,20.34
2022-09-29T08:33:51.303Z,20.36
2022-09-29T08:36:20.147Z,20.41
2022-09-29T08:38:52.051Z,20.49
2022-09-29T08:41:46.167Z,20.65
2022-09-29T08:44:36.330Z,20.79
2022-09-29T08:47:11.967Z,20.92
2022-09-29T08:49:42.856Z,20.99
2022-09-29T08:52:17.178Z,21.08
2022-09-29T08:54:48.735Z,21.20
2022-09-29T08:57:18.811Z,21.36
2022-09-29T08:59:55.003Z,21.52
2022-09-29T09:02:59.216Z,21.64
2022-09-29T09:05:35.688Z,21.73
2022-09-29T09:08:23.763Z,21.83
2022-09-29T09:10:58.205Z,21.90
2022-09-29T09:13:33.391Z,21.92
2022-09-29T09:16:33.168Z,21.97
2022-09-29T09:19:21.997Z,22.03
2022-09-29T09:21:54.104Z,22.11
2022-09-29T09:24:50.055Z,22.19
2022-09-29T09:27:22.333Z,22.26
2022-09-29T09:29:49.687Z,22.34
2022-09-29T09:32:26.074Z,22.44
2022-09-29T09:35:11.389Z,22.56
2022-09-29T09:37:45.545Z,22.66
2022-09-29T09:40:18.755Z,22.72
2022-09-29T09:42:51.570Z,22.73
2022-09-29T09:45:33.684Z,22.64
2022-09-29T09:48:15.158Z,22.50
2022-09-29T09:50:43.614Z,22.37
2022-09-29T09:53:17.087Z,22.31
2022-09-29T09:55:44.004Z,22.28
2022-09-29T09:59:04.831Z,22.36
2022-09-29T10:01:32.790Z,22.46
2022-09-29T10:04:00.595Z,22.53
2022-09-29T10:06:27.239Z,22.50
2022-09-29T10:08:54.595Z,22.43
2022-09-29T10:11:33.611Z,22.36
2022-09-29T10:14:19.241Z,22.32
2022-09-29T10:16:52.478Z,22.33
2022-09-29T10:19:25.005Z,22.35
2022-09-29T10:21:51.812Z,22.37
2022-09-29T10:24:29.949Z,22.40
2022-09-29T10:27:01.716Z,22.44
2022-09-29T10:29:39.316Z,22.52
2022-09-29T10:32:06.935Z,22.58
2022-09-29T10:34:37.508Z,22.67
2022-09-29T10:37:07.104Z,22.75
2022-09-29T10:39:39.900Z,22.88
2022-09-29T10:42:28.847Z,23.00
2022-09-29T10:45:01.752Z,23.07
2022-09-29T10:47:28.614Z,23.14
2022-09-29T10:50:27.722Z,23.20
2022-09-29T10:52:59.259Z,23.24
2022-09-29T10:55:29.414Z,23.24
2022-09-29T10:57:59.759Z,23.22
2022-09-29T11:00:28.753Z,23.21
2022-09-29T11:03:21.591Z,23.25
2022-09-29T11:06:02.975Z,23.30
2022-09-29T11:08:30.877Z,23.41
2022-09-29T11:11:22.985Z,23.55
2022-09-29T11:13:50.716Z,23.61
2022-09-29T11:16:25.732Z,23.69
2022-09-29T11:18:55.180Z,23.73
2022-09-29T11:21:21.674Z,23.76
2022-09-29T11:24:00.147Z,23.81
2022-09-29T11:27:01.482Z,23.80
2022-09-29T11:29:39.830Z,23.82
2022-09-29T11:32:23.305Z,23.80
2022-09-29T11:35:07.713Z,23.74
2022-09-29T11:37:38.892Z,23.68
2022-09-29T11:40:25.544Z,23.63
2022-09-29T11:43:13.990Z,23.57
2022-09-29T11:45:54.513Z,23.58
2022-09-29T11:48:44.194Z,23.57
2022-09-29T11:51:56.522Z,23.55
2022-09-29T11:54:36.003Z,23.52
2022-09-29T11:57:19.705Z,23.45
2022-09-29T12:00:09.728Z,23.40
2022-09-29T12:02:59.951Z,23.38
2022-09-29T12:05:33.702Z,23.38
2022-09-29T12:08:36.316Z,23.40
2022-09-29T12:11:40.390Z,23.42
2022-09-29T12:14:24.258Z,23.41
2022-09-29T12:17:02.791Z,23.40
2022-09-29T12:19:32.500Z,23.40
2022-09-29T12:22:02.153Z,23.37
2022-09-29T12:24:41.636Z,23.36
2022-09-29T12:27:13.471Z,23.34
2022-09-29T12:29:44.115Z,23.34
2022-09-29T12:32:19.513Z,23.33
2022-09-29T12:34:51.093Z,23.33
2022-09-29T12:37:26.095Z,23.35
2022-09-29T12:40:04.268Z,23.36
2022-09-29T12:42:48.820Z,23.33
2022-09-29T12:45:36.156Z,23.28
2022-09-29T12:48:47.816Z,23.27
2022-09-29T12:51:14.606Z,23.27
2022-09-29T12:53:55.048Z,23.29
2022-09-29T12:56:27.302Z,23.28
2022-09-29T12:58:57.805Z,23.26
2022-09-29T13:01:28.465Z,23.23
2022-09-29T13:04:33.575Z,23.21
2022-09-29T13:07:35.330Z,23.18
2022-09-29T13:10:20.647Z,23.06
2022-09-29T13:12:54.220Z,22.99
2022-09-29T13:15:40.571Z,22.93
2022-09-29T13:18:21.415Z,22.88
2022-09-29T13:20:53.923Z,22.87
2022-09-29T13:23:30.515Z,22.87
2022-09-29T13:26:00.090Z,22.87
2022-09-29T13:28:29.732Z,22.89
2022-09-29T13:31:01.146Z,22.93
2022-09-29T13:33:28.162Z,22.93
2022-09-29T13:35:57.046Z,22.97
2022-09-29T13:38:33.508Z,22.99
2022-09-29T13:41:15.368Z,23.00
2022-09-29T13:43:50.898Z,22.98
2022-09-29T13:46:30.969Z,22.94
2022-09-29T13:49:09.545Z,22.89
2022-09-29T13:51:54.109Z,22.87
2022-09-29T13:54:29.709Z,22.84
2022-09-29T13:57:05.241Z,22.78
2022-09-29T13:59:32.894Z,22.66
2022-09-29T14:02:00.107Z,22.57
2022-09-29T14:04:38.824Z,22.49
2022-09-29T14:07:08.381Z,22.46
2022-09-29T14:09:42.625Z,22.41
2022-09-29T14:12:26.975Z,22.35
2022-09-29T14:14:59.556Z,22.31
2022-09-29T14:17:34.374Z,22.27
2022-09-29T14:20:14.995Z,22.27
2022-09-29T14:22:44.300Z,22.28
2022-09-29T14:25:11.100Z,22.32
2022-09-29T14:27:40.785Z,22.34
2022-09-29T14:30:10.106Z,22.35
2022-09-29T14:32:49.058Z,22.37
2022-09-29T14:35:37.190Z,22.37
2022-09-29T14:38:10.890Z,22.39
2022-09-29T14:40:37.462Z,22.39
2022-09-29T14:43:11.818Z,22.36
2022-09-29T14:46:07.519Z,22.30
2022-09-29T14:49:35.767Z,22.23
2022-09-29T14:52:44.688Z,22.15
2022-09-29T14:55:17.791Z,22.08
2022-09-29T14:58:03.946Z,22.05
2022-09-29T15:00:56.742Z,22.03
2022-09-29T15:03:30.268Z,22.03
2022-09-29T15:06:24.316Z,22.01
2022-09-29T15:08:53.903Z,22.01
2022-09-29T15:11:38.072Z,22.02
2022-09-29T15:14:27.538Z,22.01
2022-09-29T15:16:57.512Z,22.03
2022-09-29T15:19:45.148Z,22.02
2022-09-29T15:22:45.440Z,21.99
2022-09-29T15:25:30.629Z,21.96
2022-09-29T15:28:18.632Z,21.92
2022-09-29T15:30:46.352Z,21.92
2022-09-29T15:33:21.277Z,21.89
2022-09-29T15:35:55.936Z,21.88
2022-09-29T15:38:22.648Z,21.83
2022-09-29T15:40:54.077Z,21.82
2022-09-29T15:43:23.185Z,21.79
2022-09-29T15:45:58.093Z,21.79
2022-09-29T15:48:25.866Z,21.78
2022-09-29T15:50:55.959Z,21.77
2022-09-29T15:53:24.535Z,21.74
2022-09-29T15:55:51.617Z,21.73
2022-09-29T15:58:27.218Z,21.69
2022-09-29T16:00:58.040Z,21.65
2022-09-29T16:03:29.905Z,21.61
2022-09-29T16:06:05.817Z,21.58
2022-09-29T16:08:36.048Z,21.54
2022-09-29T16:11:07.735Z,21.51
2022-09-29T16:13:37.172Z,21.46
2022-09-29T16:16:06.512Z,21.46
2022-09-29T16:18:36.240Z,21.44
2022-09-29T16:21:19.921Z,21.43
2022-09-29T16:23:50.648Z,21.40
2022-09-29T16:26:38.867Z,21.38
2022-09-29T16:29:11.748Z,21.38
2022-09-29T16:31:43.258Z,21.37
2022-09-29T16:34:36.118Z,21.33
2022-09-29T16:37:07.356Z,21.30
2022-09-29T16:39:45.512Z,21.28
2022-09-29T16:42:27.100Z,21.26
2022-09-29T16:44:54.446Z,21.21
2022-09-29T16:47:29.257Z,21.19
2022-09-29T16:49:59.679Z,21.15
2022-09-29T16:52:29.260Z,21.12
2022-09-29T16:55:28.286Z,21.09
2022-09-29T16:57:55.073Z,21.06
2022-09-29T17:00:22.424Z,21.05
2022-09-29T17:02:53.305Z,21.03
2022-09-29T17:05:21.883Z,21.00
2022-09-29T17:07:49.243Z,20.98
2022-09-29T17:10:21.058Z,20.96
2022-09-29T17:12:47.873Z,20.94
2022-09-29T17:15:18.389Z,20.91
2022-09-29T17:17:48.658Z,20.87
2022-09-29T17:20:18.713Z,20.86
2022-09-29T17:22:45.362Z,20.83
2022-09-29T17:25:13.512Z,20.81
2022-09-29T17:28:02.889Z,20.80
2022-09-29T17:30:29.529Z,20.79
2022-09-29T17:32:58.102Z,20.78
2022-09-29T17:35:34.612Z,20.77
2022-09-29T17:38:01.293Z,20.76
2022-09-29T17:40:31.561Z,20.74
2022-09-29T17:43:00.611Z,20.73
2022-09-29T17:45:29.963Z,20.73
2022-09-29T17:47:56.577Z,20.71
2022-09-29T17:50:36.919Z,20.71
2022-09-29T17:53:04.396Z,20.69
2022-09-29T17:55:31.938Z,20.69
2022-09-29T17:57:58.574Z,20.66
2022-09-29T18:00:39.715Z,20.64
2022-09-29T18:03:12.810Z,20.62
2022-09-29T18:05:41.238Z,20.63
2022-09-29T18:08:11.869Z,20.62
2022-09-29T18:10:38.351Z,20.61
2022-09-29T18:13:04.915Z,20.59
2022-09-29T18:15:32.226Z,20.58
2022-09-29T18:18:00.246Z,20.56
2022-09-29T18:20:29.830Z,20.56
2022-09-29T18:22:59.087Z,20.53
2022-09-29T18:25:26.232Z,20.52
2022-09-29T18:27:53.390Z,20.48
2022-09-29T18:30:25.705Z,20.44
2022-09-29T18:32:55.376Z,20.44
2022-09-29T18:35:24.410Z,20.43
2022-09-29T18:37:51.466Z,20.42
2022-09-29T18:40:18.792Z,20.41
2022-09-29T18:42:47.952Z,20.39
2022-09-29T18:45:24.806Z,20.36
2022-09-29T18:47:59.449Z,20.34
2022-09-29T18:50:28.546Z,20.32
2022-09-29T18:52:55.376Z,20.30
2022-09-29T18:55:26.436Z,20.32
2022-09-29T18:57:54.239Z,20.34
2022-09-29T19:00:26.188Z,20.34
2022-09-29T19:02:54.384Z,20.32
2022-09-29T19:05:23.795Z,20.30
2022-09-29T19:07:55.536Z,20.28
2022-09-29T19:10:23.185Z,20.25
2022-09-29T19:12:50.766Z,20.21
2022-09-29T19:15:21.671Z,20.18
2022-09-29T19:17:49.672Z,20.15
2022-09-29T19:20:17.773Z,20.08
2022-09-29T19:22:46.286Z,20.01
2022-09-29T19:25:24.276Z,19.96
2022-09-29T19:27:52.505Z,19.97
2022-09-29T19:30:21.411Z,19.96
2022-09-29T19:32:48.745Z,19.94
2022-09-29T19:35:19.130Z,19.93
2022-09-29T19:37:45.895Z,19.91
2022-09-29T19:40:17.832Z,19.89
2022-09-29T19:42:44.591Z,19.84
2022-09-29T19:45:11.297Z,19.80
2022-09-29T19:47:37.952Z,19.76
2022-09-29T19:50:28.761Z,19.74
2022-09-29T19:52:56.524Z,19.71
2022-09-29T19:55:23.865Z,19.67
2022-09-29T19:57:50.468Z,19.65
2022-09-29T20:00:20.462Z,19.64
2022-09-29T20:02:47.450Z,19.62
2022-09-29T20:05:15.293Z,19.60
2022-09-29T20:07:44.097Z,19.57
2022-09-29T20:10:15.032Z,19.54
2022-09-29T20:12:42.417Z,19.50
2022-09-29T20:15:11.852Z,19.45
2022-09-29T20:17:40.316Z,19.43
2022-09-29T20:20:09.327Z,19.40
2022-09-29T20:22:36.467Z,19.35
2022-09-29T20:25:04.397Z,19.30
2022-09-29T20:27:31.883Z,19.27
2022-09-29T20:29:58.492Z,19.21
2022-09-29T20:32:25.188Z,19.15
2022-09-29T20:34:51.727Z,19.12
2022-09-29T20:37:18.248Z,19.10
2022-09-29T20:39:44.826Z,19.06
2022-09-29T20:42:11.918Z,19.02
2022-09-29T20:44:38.432Z,18.98
2022-09-29T20:47:06.090Z,18.95
2022-09-29T20:49:32.721Z,18.91
2022-09-29T20:51:59.671Z,18.88
2022-09-29T20:54:26.368Z,18.79
2022-09-29T20:56:53.377Z,18.73
2022-09-29T20:59:23.123Z,18.67
2022-09-29T21:01:50.360Z,18.66
2022-09-29T21:04:19.994Z,18.65
2022-09-29T21:06:48.901Z,18.61
2022-09-29T21:09:22.141Z,18.58
2022-09-29T21:11:50.307Z,18.56
2022-09-29T21:14:20.565Z,18.55
2022-09-29T21:16:51.607Z,18.54
2022-09-29T21:19:25.845Z,18.52
2022-09-29T21:21:56.082Z,18.49
2022-09-29T21:24:23.150Z,18.44
2022-09-29T21:26:49.769Z,18.44
2022-09-29T21:29:17.891Z,18.42
2022-09-29T21:31:45.409Z,18.40
2022-09-29T21:34:13.992Z,18.36
2022-09-29T21:36:40.614Z,18.37
2022-09-29T21:39:08.879Z,18.37
2022-09-29T21:41:41.174Z,18.37
2022-09-29T21:44:12.993Z,18.36
2022-09-29T21:46:40.110Z,18.31
2022-09-29T21:49:08.538Z,18.31
2022-09-29T21:51:42.669Z,18.33
2022-09-29T21:54:14.455Z,18.32
2022-09-29T21:56:42.561Z,18.32
2022-09-29T21:59:10.819Z,18.32
2022-09-29T22:01:40.527Z,18.29
2022-09-29T22:04:07.559Z,18.25
2022-09-29T22:06:35.685Z,18.22
2022-09-29T22:09:02.729Z,18.18
2022-09-29T22:11:35.975Z,18.17
2022-09-29T22:14:03.119Z,18.12
2022-09-29T22:16:32.542Z,18.09
2022-09-29T22:19:21.888Z,18.09
2022-09-29T22:21:47.651Z,18.07
2022-09-29T22:24:14.167Z,18.04
2022-09-29T22:26:41.210Z,18.03
2022-09-29T22:29:07.945Z,18.04
2022-09-29T22:31:34.853Z,18.04
2022-09-29T22:34:02.715Z,18.07
2022-09-29T22:36:31.103Z,18.07
2022-09-29T22:38:58.039Z,18.06
2022-09-29T22:41:25.072Z,18.04
2022-09-29T22:43:53.309Z,17.98
2022-09-29T22:46:21.625Z,17.95
2022-09-29T22:48:48.207Z,17.93
2022-09-29T22:51:14.863Z,17.95
2022-09-29T22:53:41.763Z,17.94
2022-09-29T22:56:14.690Z,17.94
2022-09-29T22:58:41.933Z,17.94
2022-09-29T23:01:13.552Z,17.94
2022-09-29T23:03:41.650Z,17.93
2022-09-29T23:06:08.521Z,17.93
2022-09-29T23:08:36.122Z,17.92
2022-09-29T23:11:07.924Z,17.87
2022-09-29T23:13:37.559Z,17.79
2022-09-29T23:16:09.632Z,17.75
2022-09-29T23:18:43.493Z,17.71
2022-09-29T23:21:10.512Z,17.70
2022-09-29T23:23:37.090Z,17.69
2022-09-29T23:26:05.528Z,17.69
2022-09-29T23:28:32.069Z,17.67
2022-09-29T23:31:05.939Z,17.67
2022-09-29T23:33:32.945Z,17.67
2022-09-29T23:36:11.204Z,17.66
2022-09-29T23:39:01.287Z,17.64
2022-09-29T23:41:30.127Z,17.64
2022-09-29T23:43:59.179Z,17.65
2022-09-29T23:46:31.498Z,17.66
2022-09-29T23:49:02.324Z,17.67
2022-09-29T23:51:32.184Z,17.68
2022-09-29T23:54:01.633Z,17.62
2022-09-29T23:56:28.721Z,17.55
2022-09-29T23:58:55.550Z,17.51
